createdAt,value
2019-02-18T00:00:51.954Z,31.23
2019-02-18T00:03:23.297Z,31.07
2019-02-18T00:05:52.917Z,30.80
2019-02-18T00:08:22.548Z,29.47
2019-02-18T00:10:52.236Z,28.77
2019-02-18T00:13:21.857Z,28.40
2019-02-18T00:15:51.563Z,31.83
2019-02-18T00:18:21.289Z,29.23
2019-02-18T00:20:50.965Z,31.20
2019-02-18T00:23:21.627Z,29.10
2019-02-18T00:25:51.327Z,31.13
2019-02-18T00:28:20.942Z,30.20
2019-02-18T00:30:50.650Z,30.00
2019-02-18T00:33:20.271Z,30.60
2019-02-18T00:35:49.966Z,30.93
2019-02-18T00:38:19.574Z,31.07
2019-02-18T00:40:49.360Z,29.93
2019-02-18T00:43:19.027Z,28.90
2019-02-18T00:45:48.697Z,30.73
2019-02-18T00:48:18.330Z,31.10
2019-02-18T00:50:48.005Z,31.43
2019-02-18T00:53:17.640Z,31.33
2019-02-18T00:55:47.555Z,29.47
2019-02-18T00:58:17.262Z,31.83
2019-02-18T01:00:46.966Z,31.37
2019-02-18T01:03:17.591Z,31.40
2019-02-18T01:05:47.190Z,30.70
2019-02-18T01:08:16.898Z,31.23
2019-02-18T01:10:46.601Z,31.07
2019-02-18T01:13:16.242Z,29.37
2019-02-18T01:15:45.955Z,30.20
2019-02-18T01:18:15.659Z,32.07
2019-02-18T01:20:45.357Z,30.47
2019-02-18T01:23:14.969Z,31.37
2019-02-18T01:25:44.686Z,30.40
2019-02-18T01:28:14.419Z,32.07
2019-02-18T01:30:44.101Z,30.93
2019-02-18T01:33:13.706Z,31.67
2019-02-18T01:35:43.394Z,29.33
2019-02-18T01:38:13.043Z,29.67
2019-02-18T01:40:42.710Z,30.33
2019-02-18T01:43:12.370Z,31.40
2019-02-18T01:45:42.145Z,31.37
2019-02-18T01:48:11.855Z,30.90
2019-02-18T01:50:41.622Z,30.93
2019-02-18T01:53:11.389Z,30.13
2019-02-18T01:55:41.211Z,32.57
2019-02-18T01:58:10.989Z,30.80
2019-02-18T02:00:40.725Z,32.60
2019-02-18T02:03:10.428Z,31.73
2019-02-18T02:05:40.030Z,31.33
2019-02-18T02:08:09.725Z,30.40
2019-02-18T02:10:39.363Z,31.97
2019-02-18T02:13:32.047Z,31.77
2019-02-18T02:16:03.533Z,30.13
2019-02-18T02:18:33.170Z,31.37
2019-02-18T02:21:02.887Z,31.40
2019-02-18T02:23:32.558Z,29.27
2019-02-18T02:26:02.273Z,31.03
2019-02-18T02:28:32.155Z,31.97
2019-02-18T02:31:01.837Z,30.73
2019-02-18T02:33:32.434Z,31.90
2019-02-18T02:36:02.070Z,29.37
2019-02-18T02:38:31.750Z,32.13
2019-02-18T02:41:01.384Z,31.17
2019-02-18T02:43:31.157Z,30.20
2019-02-18T02:46:00.814Z,30.07
2019-02-18T02:48:30.523Z,30.43
2019-02-18T02:51:00.230Z,30.03
2019-02-18T02:53:29.934Z,30.23
2019-02-18T02:55:59.656Z,29.23
2019-02-18T02:58:29.319Z,29.80
2019-02-18T03:00:59.210Z,31.07
2019-02-18T03:03:29.290Z,31.17
2019-02-18T03:05:59.421Z,30.40
2019-02-18T03:08:29.205Z,31.70
2019-02-18T03:10:58.818Z,31.13
2019-02-18T03:13:28.516Z,29.87
2019-02-18T03:15:58.162Z,31.43
2019-02-18T03:18:27.901Z,29.30
2019-02-18T03:20:57.653Z,31.07
2019-02-18T03:23:27.359Z,27.83
2019-02-18T03:25:57.001Z,28.93
2019-02-18T03:28:52.241Z,30.37
2019-02-18T03:31:24.838Z,27.97
2019-02-18T03:33:58.527Z,30.43
2019-02-18T03:36:28.178Z,28.37
2019-02-18T03:38:57.895Z,30.77
2019-02-18T03:41:27.690Z,29.90
2019-02-18T03:43:57.305Z,30.43
2019-02-18T03:46:27.061Z,28.47
2019-02-18T03:48:56.784Z,29.53
2019-02-18T03:51:26.558Z,28.50
2019-02-18T03:53:56.233Z,29.47
2019-02-18T03:56:25.863Z,26.97
2019-02-18T03:58:55.712Z,28.40
2019-02-18T04:01:25.541Z,29.63
2019-02-18T04:03:55.170Z,28.40
2019-02-18T04:06:24.828Z,27.27
2019-02-18T04:08:54.506Z,27.03
2019-02-18T04:11:24.298Z,28.10
2019-02-18T04:13:53.988Z,29.33
2019-02-18T04:16:23.735Z,28.40
2019-02-18T04:18:53.435Z,27.17
2019-02-18T04:21:23.147Z,27.30
2019-02-18T04:23:52.870Z,27.90
2019-02-18T04:26:22.555Z,26.90
2019-02-18T04:28:52.190Z,26.47
2019-02-18T04:31:21.957Z,24.92
2019-02-18T04:33:51.639Z,27.17
2019-02-18T04:36:21.278Z,25.75
2019-02-18T04:38:54.136Z,27.53
2019-02-18T04:41:22.271Z,28.57
2019-02-18T04:43:52.034Z,25.50
2019-02-18T04:46:21.697Z,25.00
2019-02-18T04:48:51.460Z,26.73
2019-02-18T04:51:21.186Z,24.27
2019-02-18T04:53:50.838Z,24.30
2019-02-18T04:56:20.994Z,24.77
2019-02-18T04:58:50.646Z,22.33
2019-02-18T05:01:20.373Z,23.42
2019-02-18T05:03:50.089Z,24.63
2019-02-18T05:06:19.801Z,23.43
2019-02-18T05:08:49.591Z,24.63
2019-02-18T05:11:19.394Z,24.82
2019-02-18T05:13:49.021Z,25.10
2019-02-18T05:16:18.694Z,26.82
2019-02-18T05:18:48.360Z,26.37
2019-02-18T05:21:19.022Z,24.33
2019-02-18T05:23:48.698Z,25.27
2019-02-18T05:26:18.369Z,23.00
2019-02-18T05:28:48.198Z,23.23
2019-02-18T05:31:17.914Z,23.43
2019-02-18T05:33:47.705Z,23.83
2019-02-18T05:36:17.494Z,23.47
2019-02-18T05:38:47.127Z,24.43
2019-02-18T05:41:16.726Z,23.90
2019-02-18T05:43:46.356Z,23.23
2019-02-18T05:46:16.168Z,22.90
2019-02-18T05:48:55.553Z,22.97
2019-02-18T05:51:25.246Z,22.60
2019-02-18T05:53:55.058Z,24.13
2019-02-18T05:56:24.749Z,23.90
2019-02-18T05:58:54.489Z,23.60
2019-02-18T06:01:24.222Z,23.10
2019-02-18T06:03:53.854Z,23.80
2019-02-18T06:06:23.575Z,22.80
2019-02-18T06:08:53.259Z,23.67
2019-02-18T06:11:22.865Z,23.57
2019-02-18T06:13:52.569Z,23.63
2019-02-18T06:16:22.198Z,24.07
2019-02-18T06:18:51.994Z,22.60
2019-02-18T06:21:21.650Z,23.45
2019-02-18T06:23:51.403Z,22.70
2019-02-18T06:26:21.057Z,23.53
2019-02-18T06:28:50.777Z,22.73
2019-02-18T06:31:20.462Z,23.35
2019-02-18T06:33:50.222Z,23.63
2019-02-18T06:36:19.903Z,21.43
2019-02-18T06:38:49.618Z,23.47
2019-02-18T06:41:19.355Z,22.75
2019-02-18T06:43:50.099Z,23.23
2019-02-18T06:46:29.256Z,22.17
2019-02-18T06:49:19.023Z,23.77
2019-02-18T06:51:48.661Z,22.33
2019-02-18T06:54:18.450Z,23.40
2019-02-18T06:56:55.417Z,24.67
2019-02-18T06:59:29.131Z,22.93
2019-02-18T07:02:06.634Z,24.10
2019-02-18T07:04:58.417Z,23.83
2019-02-18T07:07:53.257Z,23.80
2019-02-18T07:10:43.237Z,24.10
2019-02-18T07:13:12.943Z,23.30
2019-02-18T07:15:42.598Z,24.47
2019-02-18T07:18:12.339Z,23.30
2019-02-18T07:20:42.040Z,23.90
2019-02-18T07:23:11.739Z,23.90
2019-02-18T07:25:41.426Z,24.83
2019-02-18T07:28:11.210Z,25.00
2019-02-18T07:30:40.961Z,24.10
2019-02-18T07:33:10.661Z,23.70
2019-02-18T07:35:40.355Z,23.33
2019-02-18T07:38:10.172Z,24.80
2019-02-18T07:40:39.846Z,22.67
2019-02-18T07:43:09.562Z,23.33
2019-02-18T07:45:39.222Z,25.77
2019-02-18T07:48:08.934Z,23.13
2019-02-18T07:50:38.629Z,23.63
2019-02-18T07:53:08.414Z,23.83
2019-02-18T07:55:38.145Z,23.10
2019-02-18T07:58:07.852Z,22.77
2019-02-18T08:00:37.541Z,23.63
2019-02-18T08:03:07.158Z,22.67
2019-02-18T08:05:36.881Z,23.43
2019-02-18T08:08:06.610Z,23.17
2019-02-18T08:10:36.213Z,22.90
2019-02-18T08:13:05.874Z,23.27
2019-02-18T08:15:35.517Z,22.87
2019-02-18T08:18:06.215Z,24.23
2019-02-18T08:20:35.941Z,22.17
2019-02-18T08:23:05.568Z,24.13
2019-02-18T08:25:35.233Z,22.67
2019-02-18T08:28:04.985Z,22.33
2019-02-18T08:30:34.694Z,22.27
2019-02-18T08:33:04.888Z,21.30
2019-02-18T08:35:34.507Z,22.63
2019-02-18T08:38:04.866Z,22.53
2019-02-18T08:40:34.481Z,22.37
2019-02-18T08:43:04.932Z,22.03
2019-02-18T08:45:34.617Z,22.43
2019-02-18T08:48:05.007Z,21.67
2019-02-18T08:50:34.787Z,23.07
2019-02-18T08:53:04.946Z,22.83
2019-02-18T08:55:34.643Z,22.50
2019-02-18T08:58:04.981Z,23.40
2019-02-18T09:00:34.630Z,22.10
2019-02-18T09:03:04.898Z,22.10
2019-02-18T09:05:35.547Z,22.43
2019-02-18T09:08:05.289Z,22.80
2019-02-18T09:10:35.130Z,22.03
2019-02-18T09:13:05.050Z,24.63
2019-02-18T09:15:34.655Z,20.63
2019-02-18T09:18:05.126Z,22.63
2019-02-18T09:20:34.798Z,21.97
2019-02-18T09:23:33.392Z,22.70
2019-02-18T09:26:04.179Z,21.97
2019-02-18T09:28:33.905Z,21.93
2019-02-18T09:31:03.638Z,21.83
2019-02-18T09:33:33.299Z,21.63
2019-02-18T09:36:03.308Z,23.33
2019-02-18T09:38:33.009Z,21.33
2019-02-18T09:41:02.715Z,21.73
2019-02-18T09:43:32.659Z,22.47
2019-02-18T09:46:02.427Z,21.80
2019-02-18T09:48:32.183Z,21.77
2019-02-18T09:51:01.870Z,22.20
2019-02-18T09:53:31.652Z,20.77
2019-02-18T09:56:01.289Z,22.33
2019-02-18T09:58:30.983Z,22.03
2019-02-18T10:01:00.689Z,22.33
2019-02-18T10:03:31.997Z,21.13
2019-02-18T10:06:01.659Z,20.13
2019-02-18T10:08:32.341Z,20.10
2019-02-18T10:11:02.009Z,19.10
2019-02-18T10:13:31.722Z,18.43
2019-02-18T10:16:01.329Z,19.23
2019-02-18T10:18:31.111Z,18.63
2019-02-18T10:21:00.734Z,19.47
2019-02-18T10:23:30.516Z,19.70
2019-02-18T10:26:00.233Z,16.77
2019-02-18T10:28:29.924Z,16.62
2019-02-18T10:30:59.573Z,18.67
2019-02-18T10:33:29.326Z,16.50
2019-02-18T10:35:59.012Z,16.05
2019-02-18T10:38:28.681Z,17.52
2019-02-18T10:41:06.558Z,17.05
2019-02-18T10:43:32.395Z,16.10
2019-02-18T10:46:00.999Z,17.40
2019-02-18T10:48:30.711Z,16.42
2019-02-18T10:51:00.341Z,17.48
2019-02-18T10:53:29.989Z,16.40
2019-02-18T10:55:59.659Z,14.87
2019-02-18T10:58:29.426Z,13.75
2019-02-18T11:00:59.070Z,13.95
2019-02-18T11:03:28.755Z,16.17
2019-02-18T11:05:58.468Z,16.42
2019-02-18T11:08:28.185Z,16.10
2019-02-18T11:10:57.801Z,16.15
2019-02-18T11:13:27.596Z,17.05
2019-02-18T11:15:57.326Z,15.98
2019-02-18T11:18:26.977Z,15.72
2019-02-18T11:20:56.746Z,16.27
2019-02-18T11:23:26.845Z,17.15
2019-02-18T11:25:56.501Z,17.10
2019-02-18T11:28:26.197Z,15.23
2019-02-18T11:30:56.133Z,16.00
2019-02-18T11:33:25.773Z,15.48
2019-02-18T11:35:55.489Z,15.70
2019-02-18T11:38:25.167Z,15.50
2019-02-18T11:40:54.869Z,14.40
2019-02-18T11:43:25.567Z,14.90
2019-02-18T11:45:55.301Z,14.58
2019-02-18T11:48:25.022Z,14.90
2019-02-18T11:50:55.093Z,15.70
2019-02-18T11:53:24.794Z,15.20
2019-02-18T11:55:54.393Z,15.10
2019-02-18T11:58:24.046Z,14.93
2019-02-18T12:00:53.713Z,14.95
2019-02-18T12:03:23.378Z,13.62
2019-02-18T12:05:53.133Z,14.68
2019-02-18T12:08:22.804Z,14.68
2019-02-18T12:10:52.546Z,15.70
2019-02-18T12:13:22.202Z,15.63
2019-02-18T12:15:52.094Z,15.40
2019-02-18T12:18:21.704Z,16.32
2019-02-18T12:20:51.450Z,14.58
2019-02-18T12:23:21.118Z,16.02
2019-02-18T12:25:51.739Z,15.38
2019-02-18T12:28:21.447Z,16.77
2019-02-18T12:30:51.094Z,14.87
2019-02-18T12:33:21.748Z,14.03
2019-02-18T12:35:51.446Z,14.00
2019-02-18T12:38:21.414Z,14.58
2019-02-18T12:40:51.068Z,14.20
2019-02-18T12:43:20.784Z,13.80
2019-02-18T12:45:50.454Z,14.73
2019-02-18T12:48:20.459Z,12.88
2019-02-18T12:50:50.080Z,14.40
2019-02-18T12:53:19.801Z,15.95
2019-02-18T12:55:49.509Z,13.85
2019-02-18T12:58:19.294Z,15.20
2019-02-18T13:00:49.097Z,14.20
2019-02-18T13:03:18.729Z,15.93
2019-02-18T13:05:48.478Z,16.00
2019-02-18T13:08:18.251Z,14.98
2019-02-18T13:10:48.051Z,14.40
2019-02-18T13:13:18.658Z,14.07
2019-02-18T13:15:48.427Z,15.93
2019-02-18T13:18:18.210Z,15.38
2019-02-18T13:20:47.838Z,15.43
2019-02-18T13:23:17.491Z,15.00
2019-02-18T13:25:47.785Z,15.98
2019-02-18T13:28:17.685Z,14.73
2019-02-18T13:30:48.314Z,14.50
2019-02-18T13:33:18.006Z,15.80
2019-02-18T13:35:48.801Z,15.08
2019-02-18T13:38:18.630Z,15.63
2019-02-18T13:40:48.278Z,14.53
2019-02-18T13:43:18.073Z,14.33
2019-02-18T13:45:47.865Z,15.90
2019-02-18T13:48:17.477Z,14.18
2019-02-18T13:50:47.486Z,15.70
2019-02-18T13:53:17.206Z,14.83
2019-02-18T13:55:46.882Z,14.00
2019-02-18T13:58:16.574Z,15.25
2019-02-18T14:00:46.358Z,14.83
2019-02-18T14:03:16.118Z,13.80
2019-02-18T14:05:46.098Z,14.33
2019-02-18T14:08:15.912Z,12.80
2019-02-18T14:10:45.796Z,13.20
2019-02-18T14:13:15.523Z,12.65
2019-02-18T14:15:45.508Z,13.58
2019-02-18T14:18:15.405Z,12.55
2019-02-18T14:20:45.353Z,12.57
2019-02-18T14:23:15.926Z,13.03
2019-02-18T14:25:45.721Z,13.15
2019-02-18T14:28:15.427Z,12.65
2019-02-18T14:30:45.301Z,12.68
2019-02-18T14:33:16.546Z,14.55
2019-02-18T14:35:46.199Z,12.85
2019-02-18T14:38:15.902Z,12.83
2019-02-18T14:40:45.538Z,13.93
2019-02-18T14:43:15.250Z,12.50
2019-02-18T14:45:44.931Z,13.18
2019-02-18T14:48:15.117Z,12.88
2019-02-18T14:50:44.992Z,12.55
2019-02-18T14:53:14.806Z,13.50
2019-02-18T14:55:44.655Z,12.25
2019-02-18T14:58:14.560Z,12.37
2019-02-18T15:00:45.009Z,13.03
2019-02-18T15:03:14.746Z,12.10
2019-02-18T15:05:44.537Z,12.35
2019-02-18T15:08:14.274Z,12.30
2019-02-18T15:10:43.982Z,11.97
2019-02-18T15:13:13.993Z,11.43
2019-02-18T15:15:43.990Z,14.20
2019-02-18T15:18:14.005Z,12.05
2019-02-18T15:20:43.734Z,12.75
2019-02-18T15:23:14.183Z,12.05
2019-02-18T15:25:43.907Z,12.20
2019-02-18T15:28:13.589Z,14.45
2019-02-18T15:30:43.631Z,15.63
2019-02-18T15:33:13.373Z,14.35
2019-02-18T15:35:43.114Z,14.10
2019-02-18T15:38:12.751Z,14.25
2019-02-18T15:40:42.493Z,14.05
2019-02-18T15:43:12.179Z,14.60
2019-02-18T15:45:41.849Z,14.38
2019-02-18T15:48:11.493Z,14.40
2019-02-18T15:50:41.158Z,12.78
2019-02-18T15:53:10.914Z,13.65
2019-02-18T15:55:42.722Z,13.30
2019-02-18T15:58:12.794Z,13.75
2019-02-18T16:00:42.611Z,14.07
2019-02-18T16:03:12.298Z,12.60
2019-02-18T16:05:42.102Z,13.22
2019-02-18T16:08:12.105Z,12.53
2019-02-18T16:10:41.710Z,14.40
2019-02-18T16:13:11.695Z,13.78
2019-02-18T16:15:41.326Z,14.50
2019-02-18T16:18:10.958Z,13.70
2019-02-18T16:20:42.355Z,13.90
2019-02-18T16:23:12.134Z,13.93
2019-02-18T16:25:41.829Z,15.30
2019-02-18T16:28:11.602Z,14.47
2019-02-18T16:30:41.338Z,14.55
2019-02-18T16:33:11.158Z,14.73
2019-02-18T16:35:41.246Z,15.60
2019-02-18T16:38:10.942Z,15.60
2019-02-18T16:40:40.583Z,14.73
2019-02-18T16:43:10.766Z,14.93
2019-02-18T16:45:40.486Z,15.55
2019-02-18T16:48:10.583Z,15.08
2019-02-18T16:50:40.274Z,15.40
2019-02-18T16:53:10.055Z,15.65
2019-02-18T16:55:39.926Z,14.80
2019-02-18T16:58:09.599Z,15.95
2019-02-18T17:00:39.418Z,14.90
2019-02-18T17:03:09.127Z,15.48
2019-02-18T17:05:38.891Z,16.27
2019-02-18T17:08:08.541Z,16.85
2019-02-18T17:10:38.254Z,16.05
2019-02-18T17:13:08.619Z,14.95
2019-02-18T17:15:38.672Z,15.93
2019-02-18T17:18:08.326Z,16.20
2019-02-18T17:20:37.977Z,15.83
2019-02-18T17:23:07.615Z,15.80
2019-02-18T17:25:37.416Z,16.67
2019-02-18T17:28:08.081Z,14.93
2019-02-18T17:30:37.873Z,15.97
2019-02-18T17:33:07.579Z,15.73
2019-02-18T17:35:37.367Z,16.87
2019-02-18T17:38:07.418Z,16.30
2019-02-18T17:40:37.201Z,15.63
2019-02-18T17:43:16.082Z,16.80
2019-02-18T17:45:39.380Z,16.77
2019-02-18T17:48:09.133Z,17.67
2019-02-18T17:50:38.903Z,18.97
2019-02-18T17:53:08.910Z,18.50
2019-02-18T17:55:38.586Z,19.10
2019-02-18T17:58:08.438Z,18.30
2019-02-18T18:00:39.848Z,19.07
2019-02-18T18:03:09.605Z,18.37
2019-02-18T18:05:39.296Z,17.27
2019-02-18T18:08:09.030Z,17.63
2019-02-18T18:10:38.732Z,16.33
2019-02-18T18:13:08.405Z,17.27
2019-02-18T18:15:38.172Z,16.93
2019-02-18T18:18:07.907Z,20.97
2019-02-18T18:20:37.982Z,18.17
2019-02-18T18:23:07.609Z,17.23
2019-02-18T18:25:37.326Z,17.60
2019-02-18T18:28:07.014Z,18.80
2019-02-18T18:30:36.656Z,18.13
2019-02-18T18:33:06.436Z,17.37
2019-02-18T18:35:36.570Z,18.40
2019-02-18T18:38:06.298Z,17.50
2019-02-18T18:40:35.998Z,17.97
2019-02-18T18:43:05.863Z,16.80
2019-02-18T18:45:35.581Z,17.67
2019-02-18T18:48:05.262Z,18.27
2019-02-18T18:50:35.029Z,17.13
2019-02-18T18:53:04.886Z,15.97
2019-02-18T18:55:34.629Z,18.43
2019-02-18T18:58:06.126Z,17.27
2019-02-18T19:00:35.849Z,17.47
2019-02-18T19:03:08.159Z,17.10
2019-02-18T19:05:37.869Z,17.63
2019-02-18T19:08:07.498Z,17.13
2019-02-18T19:10:37.294Z,17.57
2019-02-18T19:13:07.011Z,16.90
2019-02-18T19:15:37.166Z,17.40
2019-02-18T19:18:07.023Z,15.83
2019-02-18T19:20:36.761Z,17.80
2019-02-18T19:23:06.429Z,17.20
2019-02-18T19:25:36.141Z,16.43
2019-02-18T19:28:05.885Z,15.30
2019-02-18T19:30:35.607Z,16.20
2019-02-18T19:33:05.402Z,17.10
2019-02-18T19:35:35.113Z,16.70
2019-02-18T19:38:04.909Z,16.10
2019-02-18T19:40:34.547Z,17.27
2019-02-18T19:43:04.968Z,16.17
2019-02-18T19:45:34.645Z,17.77
2019-02-18T19:48:05.053Z,16.63
2019-02-18T19:50:34.791Z,16.60
2019-02-18T19:53:05.973Z,16.37
2019-02-18T19:55:35.731Z,16.23
2019-02-18T19:58:05.481Z,16.80
2019-02-18T20:00:35.394Z,16.90
2019-02-18T20:03:05.202Z,15.87
2019-02-18T20:05:34.866Z,15.83
2019-02-18T20:08:04.907Z,16.53
2019-02-18T20:10:35.141Z,16.93
2019-02-18T20:13:04.872Z,16.77
2019-02-18T20:15:34.665Z,17.50
2019-02-18T20:18:04.930Z,17.60
2019-02-18T20:20:34.670Z,17.40
2019-02-18T20:23:04.911Z,16.40
2019-02-18T20:25:34.657Z,16.73
2019-02-18T20:28:04.994Z,16.07
2019-02-18T20:30:34.631Z,16.37
2019-02-18T20:33:05.067Z,17.77
2019-02-18T20:35:34.761Z,16.67
2019-02-18T20:38:05.041Z,17.23
2019-02-18T20:40:34.721Z,16.83
2019-02-18T20:43:05.559Z,17.10
2019-02-18T20:45:35.191Z,16.60
2019-02-18T20:48:05.865Z,16.70
2019-02-18T20:50:35.646Z,16.30
2019-02-18T20:53:05.420Z,16.30
2019-02-18T20:55:35.149Z,16.53
2019-02-18T20:58:04.910Z,15.77
2019-02-18T21:00:34.849Z,18.77
2019-02-18T21:03:04.979Z,17.83
2019-02-18T21:05:35.150Z,15.60
2019-02-18T21:08:04.878Z,17.63
2019-02-18T21:10:34.649Z,16.47
2019-02-18T21:13:05.056Z,16.43
2019-02-18T21:15:34.713Z,16.93
2019-02-18T21:18:04.944Z,18.43
2019-02-18T21:20:34.746Z,17.13
2019-02-18T21:23:04.849Z,17.50
2019-02-18T21:25:34.591Z,17.37
2019-02-18T21:28:04.851Z,16.30
2019-02-18T21:30:34.686Z,16.17
2019-02-18T21:33:04.810Z,16.00
2019-02-18T21:35:34.533Z,17.67
2019-02-18T21:38:05.009Z,17.23
2019-02-18T21:40:34.701Z,16.60
2019-02-18T21:43:04.889Z,18.03
2019-02-18T21:45:34.517Z,17.23
2019-02-18T21:48:05.047Z,17.00
2019-02-18T21:50:34.714Z,17.63
2019-02-18T21:53:04.846Z,18.23
2019-02-18T21:55:34.574Z,17.37
2019-02-18T21:58:04.986Z,16.53
2019-02-18T22:00:34.718Z,17.30
2019-02-18T22:03:04.991Z,16.57
2019-02-18T22:05:34.634Z,17.60
2019-02-18T22:08:04.844Z,16.90
2019-02-18T22:10:34.469Z,17.20
2019-02-18T22:13:04.977Z,17.57
2019-02-18T22:15:34.689Z,18.43
2019-02-18T22:18:04.977Z,18.30
2019-02-18T22:20:34.654Z,18.47
2019-02-18T22:23:04.831Z,17.83
2019-02-18T22:25:34.458Z,18.03
2019-02-18T22:28:04.943Z,17.10
2019-02-18T22:30:34.601Z,17.00
2019-02-18T22:33:05.106Z,17.07
2019-02-18T22:35:34.818Z,17.20
2019-02-18T22:38:05.889Z,17.00
2019-02-18T22:40:35.586Z,17.90
2019-02-18T22:43:08.257Z,17.80
2019-02-18T22:45:38.288Z,17.60
2019-02-18T22:48:08.062Z,16.70
2019-02-18T22:50:37.712Z,17.10
2019-02-18T22:53:07.772Z,17.30
2019-02-18T22:55:37.474Z,17.37
2019-02-18T22:58:07.312Z,17.03
2019-02-18T23:01:03.384Z,17.53
2019-02-18T23:03:33.278Z,17.80
2019-02-18T23:06:02.969Z,16.53
2019-02-18T23:08:32.650Z,17.73
2019-02-18T23:11:02.745Z,16.63
2019-02-18T23:13:32.432Z,15.60
2019-02-18T23:16:02.116Z,17.53
2019-02-18T23:18:31.757Z,17.30
2019-02-18T23:21:01.490Z,16.07
2019-02-18T23:23:32.066Z,15.70
2019-02-18T23:26:02.266Z,16.07
2019-02-18T23:28:31.915Z,15.93
2019-02-18T23:31:01.609Z,15.67
2019-02-18T23:33:31.226Z,16.47
2019-02-18T23:36:00.874Z,17.17
2019-02-18T23:38:30.534Z,15.93
2019-02-18T23:41:00.194Z,16.50
2019-02-18T23:43:30.083Z,16.00
2019-02-18T23:45:59.826Z,16.40
2019-02-18T23:48:29.521Z,16.50
2019-02-18T23:50:59.246Z,16.27
2019-02-18T23:53:29.501Z,16.17
2019-02-18T23:55:59.358Z,16.30
2019-02-18T23:58:29.113Z,15.97
